createdAt,value
2023-03-02T00:01:09.522Z,8.38
2023-03-02T00:04:17.425Z,9.35
2023-03-02T00:07:27.045Z,9.90
2023-03-02T00:10:31.302Z,7.75
2023-03-02T00:13:35.751Z,9.65
2023-03-02T00:16:40.183Z,9.43
2023-03-02T00:19:44.783Z,8.35
2023-03-02T00:22:48.217Z,8.73
2023-03-02T00:25:50.845Z,7.95
2023-03-02T00:28:53.887Z,9.02
2023-03-02T00:31:56.606Z,10.15
2023-03-02T00:34:59.706Z,9.23
2023-03-02T00:38:02.195Z,9.15
2023-03-02T00:41:05.504Z,8.90
2023-03-02T00:44:10.720Z,8.40
2023-03-02T00:47:14.123Z,8.68
2023-03-02T00:50:17.813Z,8.50
2023-03-02T00:53:20.606Z,9.43
2023-03-02T00:56:23.166Z,9.07
2023-03-02T00:59:30.483Z,7.15
2023-03-02T01:02:34.182Z,7.12
2023-03-02T01:05:37.761Z,8.25
2023-03-02T01:08:40.341Z,8.35
2023-03-02T01:11:43.402Z,6.35
2023-03-02T01:14:48.141Z,8.10
2023-03-02T01:17:50.952Z,7.93
2023-03-02T01:21:02.823Z,7.87
2023-03-02T01:24:06.098Z,8.15
2023-03-02T01:27:08.589Z,8.65
2023-03-02T01:30:12.979Z,6.93
2023-03-02T01:33:16.605Z,8.48
2023-03-02T01:36:19.434Z,6.78
2023-03-02T01:39:24.810Z,7.12
2023-03-02T01:42:33.698Z,6.80
2023-03-02T01:45:57.465Z,6.47
2023-03-02T01:49:07.794Z,6.75
2023-03-02T01:52:12.178Z,7.00
2023-03-02T01:55:20.197Z,8.23
2023-03-02T01:58:23.304Z,6.25
2023-03-02T02:01:26.974Z,6.47
2023-03-02T02:04:31.067Z,7.03
2023-03-02T02:07:33.834Z,6.53
2023-03-02T02:10:37.347Z,6.97
2023-03-02T02:13:40.246Z,7.30
2023-03-02T02:16:43.137Z,6.87
2023-03-02T02:19:56.422Z,7.78
2023-03-02T02:23:35.645Z,6.80
2023-03-02T02:26:46.704Z,5.87
2023-03-02T02:29:52.519Z,6.22
2023-03-02T02:32:58.469Z,6.87
2023-03-02T02:36:07.235Z,7.65
2023-03-02T02:39:17.830Z,6.20
2023-03-02T02:42:33.700Z,5.75
2023-03-02T02:45:36.695Z,5.72
2023-03-02T02:48:40.099Z,5.87
2023-03-02T02:51:43.070Z,6.30
2023-03-02T02:54:49.336Z,6.25
2023-03-02T02:57:56.323Z,6.25
2023-03-02T03:01:00.493Z,6.93
2023-03-02T03:04:06.118Z,6.55
2023-03-02T03:07:12.922Z,5.62
2023-03-02T03:10:23.234Z,5.60
2023-03-02T03:13:26.225Z,5.15
2023-03-02T03:16:31.517Z,5.60
2023-03-02T03:19:34.838Z,4.87
2023-03-02T03:22:38.798Z,5.43
2023-03-02T03:25:41.962Z,6.45
2023-03-02T03:28:45.715Z,6.62
2023-03-02T03:31:48.859Z,5.93
2023-03-02T03:34:52.279Z,5.65
2023-03-02T03:37:55.564Z,6.62
2023-03-02T03:40:58.895Z,5.60
2023-03-02T03:44:01.987Z,5.72
2023-03-02T03:47:05.258Z,7.07
2023-03-02T03:50:09.503Z,6.00
2023-03-02T03:53:13.579Z,5.75
2023-03-02T03:56:16.606Z,6.20
2023-03-02T03:59:22.626Z,7.55
2023-03-02T04:02:25.853Z,5.57
2023-03-02T04:05:30.677Z,6.07
2023-03-02T04:08:35.890Z,5.22
2023-03-02T04:11:41.650Z,5.20
2023-03-02T04:14:45.576Z,6.20
2023-03-02T04:17:48.595Z,6.35
2023-03-02T04:20:52.718Z,5.82
2023-03-02T04:23:56.405Z,6.47
2023-03-02T04:26:59.132Z,6.55
2023-03-02T04:30:02.224Z,7.00
2023-03-02T04:33:05.189Z,5.25
2023-03-02T04:36:08.764Z,7.05
2023-03-02T04:39:14.845Z,7.35
2023-03-02T04:42:20.541Z,5.90
2023-03-02T04:45:23.104Z,4.80
2023-03-02T04:48:26.160Z,6.57
2023-03-02T04:51:31.878Z,5.60
2023-03-02T04:54:34.649Z,5.15
2023-03-02T04:57:37.264Z,5.43
2023-03-02T05:00:40.309Z,6.07
2023-03-02T05:03:42.956Z,6.15
2023-03-02T05:06:45.902Z,5.32
2023-03-02T05:09:48.454Z,4.85
2023-03-02T05:13:05.751Z,6.10
2023-03-02T05:16:08.399Z,4.87
2023-03-02T05:19:12.502Z,4.93
2023-03-02T05:22:15.103Z,4.75
2023-03-02T05:25:17.908Z,5.80
2023-03-02T05:28:22.215Z,4.90
2023-03-02T05:31:31.968Z,5.15
2023-03-02T05:34:34.655Z,5.25
2023-03-02T05:37:41.513Z,5.45
2023-03-02T05:40:44.345Z,5.50
2023-03-02T05:43:48.028Z,4.05
2023-03-02T05:46:50.627Z,4.68
2023-03-02T05:49:53.546Z,5.62
2023-03-02T05:52:56.180Z,5.00
2023-03-02T05:55:59.029Z,5.25
2023-03-02T05:59:01.825Z,4.45
2023-03-02T06:02:04.653Z,5.68
2023-03-02T06:05:18.914Z,4.68
2023-03-02T06:08:21.932Z,4.57
2023-03-02T06:11:25.019Z,4.18
2023-03-02T06:14:27.542Z,4.68
2023-03-02T06:17:30.358Z,4.97
2023-03-02T06:20:33.116Z,5.97
2023-03-02T06:23:36.085Z,4.87
2023-03-02T06:26:38.664Z,5.30
2023-03-02T06:29:41.804Z,5.80
2023-03-02T06:32:46.055Z,5.85
2023-03-02T06:35:49.650Z,5.87
2023-03-02T06:38:53.150Z,5.95
2023-03-02T06:41:56.424Z,5.70
2023-03-02T06:44:58.957Z,6.35
2023-03-02T06:48:02.409Z,6.32
2023-03-02T06:51:06.154Z,6.53
2023-03-02T06:54:09.294Z,5.85
2023-03-02T06:57:11.781Z,7.82
2023-03-02T07:00:17.373Z,7.18
2023-03-02T07:03:24.658Z,5.37
2023-03-02T07:06:27.676Z,6.87
2023-03-02T07:09:33.957Z,7.37
2023-03-02T07:12:36.807Z,7.35
2023-03-02T07:15:40.107Z,6.62
2023-03-02T07:18:43.032Z,6.82
2023-03-02T07:21:45.640Z,6.12
2023-03-02T07:24:48.393Z,6.40
2023-03-02T07:27:50.979Z,6.47
2023-03-02T07:30:55.532Z,5.28
2023-03-02T07:33:58.159Z,7.45
2023-03-02T07:37:00.988Z,6.15
2023-03-02T07:40:04.426Z,6.57
2023-03-02T07:43:07.701Z,6.32
2023-03-02T07:46:10.339Z,5.85
2023-03-02T07:49:13.635Z,6.78
2023-03-02T07:52:16.315Z,5.45
2023-03-02T07:55:19.309Z,6.20
2023-03-02T07:58:21.869Z,6.07
2023-03-02T08:01:24.816Z,5.85
2023-03-02T08:04:27.773Z,5.05
2023-03-02T08:07:32.834Z,5.62
2023-03-02T08:10:36.961Z,5.22
2023-03-02T08:13:40.548Z,5.05
2023-03-02T08:16:43.422Z,4.53
2023-03-02T08:19:46.847Z,5.35
2023-03-02T08:22:51.721Z,4.95
2023-03-02T08:25:55.328Z,4.62
2023-03-02T08:28:59.048Z,5.43
2023-03-02T08:32:01.845Z,5.68
2023-03-02T08:35:05.548Z,5.00
2023-03-02T08:38:08.419Z,5.80
2023-03-02T08:41:16.734Z,4.78
2023-03-02T08:44:22.135Z,4.28
2023-03-02T08:47:24.980Z,4.35
2023-03-02T08:50:28.701Z,5.05
2023-03-02T08:53:34.866Z,5.28
2023-03-02T08:56:39.254Z,5.25
2023-03-02T08:59:44.542Z,4.70
2023-03-02T09:02:47.222Z,4.97
2023-03-02T09:05:51.014Z,4.85
2023-03-02T09:08:53.662Z,5.15
2023-03-02T09:11:56.838Z,4.97
2023-03-02T09:14:59.422Z,5.87
2023-03-02T09:18:02.319Z,5.15
2023-03-02T09:21:05.377Z,5.47
2023-03-02T09:24:08.665Z,5.05
2023-03-02T09:27:11.252Z,5.90
2023-03-02T09:30:15.685Z,4.93
2023-03-02T09:33:21.118Z,4.62
2023-03-02T09:36:26.169Z,6.10
2023-03-02T09:39:28.802Z,5.57
2023-03-02T09:42:56.171Z,5.93
2023-03-02T09:46:15.225Z,4.90
2023-03-02T09:49:59.979Z,6.30
2023-03-02T09:53:17.541Z,4.78
2023-03-02T09:56:21.685Z,5.62
2023-03-02T09:59:41.052Z,4.10
2023-03-02T10:03:05.102Z,5.75
2023-03-02T10:06:14.493Z,5.53
2023-03-02T10:09:17.367Z,5.15
2023-03-02T10:12:29.031Z,5.32
2023-03-02T10:15:37.720Z,5.25
2023-03-02T10:19:08.056Z,4.93
2023-03-02T10:22:32.748Z,5.20
2023-03-02T10:25:48.969Z,5.47
2023-03-02T10:29:05.703Z,4.80
2023-03-02T10:32:16.774Z,5.75
2023-03-02T10:35:24.743Z,5.87
2023-03-02T10:38:28.841Z,6.90
2023-03-02T10:41:40.916Z,5.65
2023-03-02T10:44:51.124Z,5.70
2023-03-02T10:48:01.742Z,5.35
2023-03-02T10:51:04.951Z,5.37
2023-03-02T10:54:11.940Z,5.20
2023-03-02T10:57:37.293Z,4.95
2023-03-02T11:00:40.148Z,5.37
2023-03-02T11:03:43.077Z,5.15
2023-03-02T11:06:45.616Z,5.50
2023-03-02T11:10:05.239Z,5.47
2023-03-02T11:13:20.618Z,4.95
2023-03-02T11:16:31.688Z,5.10
2023-03-02T11:19:41.117Z,5.22
2023-03-02T11:22:53.611Z,5.65
2023-03-02T11:26:05.373Z,5.25
2023-03-02T11:29:36.521Z,5.40
2023-03-02T11:32:42.071Z,5.93
2023-03-02T11:35:55.373Z,4.97
2023-03-02T11:38:58.104Z,5.60
2023-03-02T11:42:01.177Z,5.80
2023-03-02T11:45:16.466Z,5.20
2023-03-02T11:48:27.019Z,6.37
2023-03-02T11:51:36.299Z,6.18
2023-03-02T11:54:46.096Z,6.12
2023-03-02T12:01:12.949Z,6.20
2023-03-02T12:04:34.993Z,5.95
2023-03-02T12:07:37.647Z,6.57
2023-03-02T12:10:43.758Z,5.78
2023-03-02T12:13:49.725Z,5.53
2023-03-02T12:17:17.599Z,5.60
2023-03-02T12:20:26.964Z,5.55
2023-03-02T12:23:32.017Z,5.47
2023-03-02T12:26:37.405Z,5.37
2023-03-02T12:29:44.824Z,5.28
2023-03-02T12:33:02.513Z,5.65
2023-03-02T12:36:13.488Z,6.03
2023-03-02T12:39:54.816Z,5.22
2023-03-02T12:43:12.653Z,4.80
2023-03-02T12:46:36.753Z,5.20
2023-03-02T12:49:42.787Z,4.75
2023-03-02T12:52:56.033Z,4.87
2023-03-02T12:55:58.949Z,5.03
2023-03-02T12:59:01.616Z,5.62
2023-03-02T13:02:26.080Z,5.18
2023-03-02T13:05:34.801Z,4.97
2023-03-02T13:08:38.078Z,4.93
2023-03-02T13:11:44.311Z,5.05
2023-03-02T13:14:52.624Z,4.90
2023-03-02T13:17:58.223Z,4.78
2023-03-02T13:21:03.709Z,4.80
2023-03-02T13:24:26.935Z,4.70
2023-03-02T13:27:30.805Z,4.57
2023-03-02T13:30:47.669Z,4.93
2023-03-02T13:33:53.613Z,4.75
2023-03-02T13:36:56.218Z,4.53
2023-03-02T13:40:02.138Z,5.10
2023-03-02T13:43:19.131Z,5.72
2023-03-02T13:46:22.216Z,5.50
2023-03-02T13:49:33.187Z,5.12
2023-03-02T13:52:36.066Z,5.10
2023-03-02T13:55:39.897Z,5.65
2023-03-02T13:58:43.390Z,5.53
2023-03-02T14:01:46.446Z,5.03
2023-03-02T14:04:49.412Z,5.07
2023-03-02T14:07:52.089Z,5.00
2023-03-02T14:10:59.839Z,5.03
2023-03-02T14:14:04.907Z,5.10
2023-03-02T14:17:15.229Z,4.87
2023-03-02T14:20:20.532Z,4.90
2023-03-02T14:23:25.190Z,5.18
2023-03-02T14:26:36.096Z,5.60
2023-03-02T14:29:39.701Z,4.82
2023-03-02T14:32:42.547Z,4.70
2023-03-02T14:35:51.203Z,4.80
2023-03-02T14:38:56.982Z,4.22
2023-03-02T14:42:00.495Z,4.22
2023-03-02T14:45:03.347Z,4.82
2023-03-02T14:48:06.296Z,4.43
2023-03-02T14:51:24.250Z,3.87
2023-03-02T14:54:32.580Z,4.25
2023-03-02T14:57:38.574Z,3.67
2023-03-02T15:00:44.005Z,3.72
2023-03-02T15:03:46.595Z,4.18
2023-03-02T15:06:49.771Z,4.37
2023-03-02T15:09:52.604Z,4.15
2023-03-02T15:12:55.527Z,3.70
2023-03-02T15:15:58.034Z,3.83
2023-03-02T15:19:00.952Z,3.87
2023-03-02T15:22:04.425Z,3.62
2023-03-02T15:25:07.518Z,4.05
2023-03-02T15:28:10.525Z,4.12
2023-03-02T15:31:16.127Z,4.15
2023-03-02T15:34:18.743Z,3.87
2023-03-02T15:37:21.579Z,3.78
2023-03-02T15:40:25.756Z,3.95
2023-03-02T15:43:28.923Z,3.85
2023-03-02T15:46:31.467Z,4.03
2023-03-02T15:49:34.294Z,3.97
2023-03-02T15:52:36.797Z,4.60
2023-03-02T15:55:42.696Z,3.87
2023-03-02T15:58:47.249Z,3.90
2023-03-02T16:01:50.215Z,4.12
2023-03-02T16:04:53.075Z,4.22
2023-03-02T16:07:55.598Z,4.05
2023-03-02T16:11:03.337Z,4.15
2023-03-02T16:14:06.190Z,4.03
2023-03-02T16:17:09.039Z,4.45
2023-03-02T16:20:12.208Z,4.32
2023-03-02T16:23:16.126Z,4.03
2023-03-02T16:26:20.889Z,4.40
2023-03-02T16:29:24.265Z,4.20
2023-03-02T16:32:28.023Z,3.58
2023-03-02T16:35:32.984Z,4.25
2023-03-02T16:38:36.933Z,3.45
2023-03-02T16:41:41.870Z,4.22
2023-03-02T16:44:45.927Z,4.75
2023-03-02T16:47:49.335Z,3.37
2023-03-02T16:50:56.483Z,3.72
2023-03-02T16:53:59.388Z,4.28
2023-03-02T16:57:02.132Z,3.58
2023-03-02T17:00:07.189Z,4.45
2023-03-02T17:03:11.451Z,3.90
2023-03-02T17:06:16.440Z,3.37
2023-03-02T17:09:19.008Z,3.83
2023-03-02T17:12:21.898Z,3.65
2023-03-02T17:15:24.670Z,4.55
2023-03-02T17:18:28.209Z,3.62
2023-03-02T17:21:31.094Z,4.28
2023-03-02T17:24:34.629Z,5.00
2023-03-02T17:27:37.550Z,4.82
2023-03-02T17:30:42.953Z,5.47
2023-03-02T17:33:45.695Z,5.12
2023-03-02T17:36:48.592Z,5.87
2023-03-02T17:39:52.403Z,5.47
2023-03-02T17:42:58.149Z,6.53
2023-03-02T17:46:15.613Z,6.05
2023-03-02T17:49:18.913Z,6.80
2023-03-02T17:52:21.842Z,6.82
2023-03-02T17:55:24.663Z,6.80
2023-03-02T17:58:33.211Z,6.65
2023-03-02T18:04:48.594Z,6.55
2023-03-02T18:07:52.710Z,6.03
2023-03-02T18:10:56.648Z,6.20
2023-03-02T18:13:59.610Z,6.18
2023-03-02T18:17:04.967Z,6.70
2023-03-02T18:20:08.207Z,6.32
2023-03-02T18:23:12.779Z,8.00
2023-03-02T18:26:15.473Z,7.28
2023-03-02T18:29:18.502Z,7.68
2023-03-02T18:32:21.134Z,7.18
2023-03-02T18:35:24.307Z,6.95
2023-03-02T18:38:30.781Z,6.30
2023-03-02T18:41:34.042Z,7.45
2023-03-02T18:44:36.922Z,6.95
2023-03-02T18:47:39.706Z,7.00
2023-03-02T18:50:43.802Z,7.20
2023-03-02T18:53:47.330Z,7.82
2023-03-02T18:56:50.023Z,7.57
2023-03-02T18:59:52.849Z,7.87
2023-03-02T19:02:56.550Z,7.95
2023-03-02T19:05:59.731Z,6.93
2023-03-02T19:09:02.392Z,6.28
2023-03-02T19:12:05.760Z,7.78
2023-03-02T19:15:10.584Z,8.70
2023-03-02T19:18:22.283Z,6.85
2023-03-02T19:21:25.207Z,6.93
2023-03-02T19:24:28.370Z,6.82
2023-03-02T19:27:30.971Z,8.15
2023-03-02T19:30:36.789Z,6.47
2023-03-02T19:33:40.362Z,7.68
2023-03-02T19:36:43.868Z,7.28
2023-03-02T19:39:46.476Z,7.47
2023-03-02T19:42:49.628Z,7.60
2023-03-02T19:45:53.035Z,6.70
2023-03-02T19:48:58.862Z,6.90
2023-03-02T19:52:01.993Z,5.93
2023-03-02T19:55:06.779Z,6.62
2023-03-02T19:58:11.231Z,5.70
2023-03-02T20:01:21.464Z,6.22
2023-03-02T20:04:24.776Z,6.68
2023-03-02T20:07:27.409Z,6.37
2023-03-02T20:10:37.069Z,6.25
2023-03-02T20:13:40.015Z,6.55
2023-03-02T20:16:43.005Z,7.00
2023-03-02T20:19:47.232Z,7.15
2023-03-02T20:22:50.285Z,6.10
2023-03-02T20:25:52.941Z,6.40
2023-03-02T20:28:56.905Z,6.95
2023-03-02T20:32:00.308Z,7.43
2023-03-02T20:35:03.602Z,6.62
2023-03-02T20:38:09.092Z,6.93
2023-03-02T20:41:13.401Z,6.72
2023-03-02T20:44:16.265Z,6.75
2023-03-02T20:47:19.547Z,6.90
2023-03-02T20:50:26.067Z,6.82
2023-03-02T20:53:29.450Z,6.43
2023-03-02T20:56:32.310Z,6.97
2023-03-02T20:59:37.437Z,5.75
2023-03-02T21:02:40.353Z,5.78
2023-03-02T21:05:43.931Z,7.43
2023-03-02T21:08:47.320Z,6.60
2023-03-02T21:11:50.174Z,6.50
2023-03-02T21:14:53.412Z,6.97
2023-03-02T21:17:57.269Z,7.68
2023-03-02T21:21:02.864Z,5.97
2023-03-02T21:24:06.031Z,6.05
2023-03-02T21:27:08.604Z,6.32
2023-03-02T21:30:20.338Z,6.97
2023-03-02T21:33:22.914Z,7.37
2023-03-02T21:36:26.422Z,7.22
2023-03-02T21:39:29.106Z,6.20
2023-03-02T21:42:32.005Z,6.78
2023-03-02T21:45:36.107Z,7.25
2023-03-02T21:48:39.339Z,5.90
2023-03-02T21:51:42.294Z,8.15
2023-03-02T21:54:45.266Z,7.32
2023-03-02T21:57:48.347Z,6.22
2023-03-02T22:00:51.618Z,6.10
2023-03-02T22:03:54.536Z,7.37
2023-03-02T22:06:57.097Z,7.47
2023-03-02T22:10:00.041Z,8.32
2023-03-02T22:13:23.507Z,6.90
2023-03-02T22:16:29.446Z,6.87
2023-03-02T22:19:32.904Z,8.15
2023-03-02T22:22:35.737Z,6.68
2023-03-02T22:25:38.300Z,7.87
2023-03-02T22:28:41.821Z,8.93
2023-03-02T22:31:49.881Z,7.00
2023-03-02T22:34:58.619Z,8.10
2023-03-02T22:41:14.376Z,7.15
2023-03-02T22:44:17.047Z,8.82
2023-03-02T22:47:20.692Z,8.40
2023-03-02T22:50:29.910Z,6.70
2023-03-02T22:53:33.208Z,9.18
2023-03-02T22:56:38.557Z,9.85
2023-03-02T22:59:41.459Z,8.88
2023-03-02T23:02:46.280Z,8.23
2023-03-02T23:05:53.058Z,7.72
2023-03-02T23:09:06.453Z,8.10
2023-03-02T23:12:18.870Z,8.82
2023-03-02T23:15:21.833Z,7.82
2023-03-02T23:18:28.824Z,8.73
2023-03-02T23:21:38.909Z,9.13
2023-03-02T23:24:42.101Z,8.70
2023-03-02T23:27:44.736Z,7.53
2023-03-02T23:30:47.941Z,8.80
2023-03-02T23:33:51.136Z,8.85
2023-03-02T23:36:53.890Z,8.20
2023-03-02T23:39:56.430Z,8.20
2023-03-02T23:42:59.289Z,8.50
2023-03-02T23:46:02.196Z,8.57
2023-03-02T23:49:05.104Z,9.15
2023-03-02T23:52:07.542Z,8.70
2023-03-02T23:55:10.726Z,10.32
2023-03-02T23:58:13.299Z,8.85
